KIJX

Jacksonville Municipal Airport

Jacksonville, Illinois, USA
METAR KIJX 170555Z AUTO 17006KT 10SM CLR 06/M03 A3003 RMK AO2 T00601035 10091 20056 401441005
Observed Flight Rules
Dec-17 @ 05:55 UTC (17 minutes ago) Visual Flight Rules
Wind Visibility Clouds
170° at 6 knots 10 miles
  • Clear skies
Temperatures Readings
Current 6°C / 43°F
Dewpoint -4°C / 25°F
Humidity 49%
Altimeter 30.03" Hg
Pressure 1017 hPa
Elevation 190
METAR KIJX 170555Z AUTO 17006KT 10SM CLR 06/M03 A3003 RMK AO2 T00601035 10091 20056 401441005
Observed Flight Rules
Dec-17 @ 05:55 UTC
(17 minutes ago)
VFR
Wind Visibility
170° at 6 knots 10 miles
Clouds
  • Clear skies
Temperature Dewpoint
6°C / 43°F -4°C / 25°F
Humidity Altimeter Pressure
49% 30.03" Hg 1017 hPa